Huvudsida
METAR-TAF:

METAR-TAF

Flygplatser :

Angads Airport

Oujda, Marocko

latitud: 34-47N, longitud: 001-56W, höjd: 468 m

Aktuellt väderrapport

Denna rapport gjordes för 20 minuter sedan, klockan 04:30 UTC
Vind 1 kt från syd/sydväst
Temperatur 21°C
Fuktighet 46%
Tryck 1019 hPa
Sikt 10 km eller mer
Inga moln under 1 500 m eller inga cumulonimbus

METAR: GMFO 230430Z 21001KT CAVOK 21/09 Q1019 NOSIG

Tid: 05:50 (04:50 UTC)

Väderprognos

Denna rapport gjordes för 5 timmar och 50 minuter sedan, klockan 23:00 UTC
Prognos gäller från 23 kl. 00 UTC till 24 kl. 06 UTC
Vind 4 kt från väst/sydväst
Sikt 10 km eller mer
Inga moln under 1 500 m eller inga cumulonimbus
Temporärt
från 23 kl. 11 UTC till 23 kl. 19 UTC
Vind 16 kt från nord

TAF: GMFO 222300Z 2300/2406 24004KT CAVOK TEMPO 2311/2319 36016KT

Aktuella väderrapporter och prognoser från 4000 flygplatser (METAR- och TAF-rapporter).

De tillgängliga stationerna syns som gula och röda prickar på kartan.

För musen över prickarna för att se namnen på stationerna.

Klicka sedan för att få väderrapporter och prognoser.

För att ändra kartan: Klicka på de gröna knapparna med ett svart kors på för att zooma in; den gröna knappen med ett streck på för att zooma ut; eller på de gröna pilarna för angränsande kartor.


METAR-TAF: